Time,TemperatureF,DewpointF,PressureIn,WindDirection,WindDirectionDegrees,WindSpeedMPH,WindSpeedGustMPH,Humidity,HourlyPrecipIn,Conditions,Clouds,dailyrainin,SoftwareType,DateUTC
2013-09-16 00:01:00,54.3,52.3,30.22,NNE,25,0.0,0.0,93,0.00,,BKN032,0.00,VWS V14.01,2013-09-16 05:01:00,
2013-09-16 00:06:00,54.2,52.2,30.23,NE,46,0.0,1.0,93,0.00,,BKN032,0.00,VWS V14.01,2013-09-16 05:06:00,
2013-09-16 00:11:00,54.1,52.1,30.23,NE,46,0.0,2.0,93,0.00,,BKN032,0.00,VWS V14.01,2013-09-16 05:11:00,
2013-09-16 00:16:00,54.0,52.0,30.23,NE,39,0.0,2.0,93,0.00,,BKN032,0.00,VWS V14.01,2013-09-16 05:16:00,
2013-09-16 00:21:00,53.8,51.8,30.23,NE,40,0.0,2.0,93,0.00,,BKN032,0.00,VWS V14.01,2013-09-16 05:21:00,
2013-09-16 00:26:00,53.7,51.7,30.23,ENE,60,1.0,2.0,93,0.00,,BKN032,0.00,VWS V14.01,2013-09-16 05:26:00,
2013-09-16 00:31:00,53.5,51.8,30.23,NE,40,0.0,0.0,94,0.00,,BKN032,0.00,VWS V14.01,2013-09-16 05:31:00,
2013-09-16 00:36:00,53.4,51.7,30.23,NE,36,0.0,1.0,94,0.00,,BKN032,0.00,VWS V14.01,2013-09-16 05:36:00,
2013-09-16 00:41:00,53.2,51.5,30.24,NE,34,0.0,1.0,94,0.00,,BKN032,0.00,VWS V14.01,2013-09-16 05:41:00,
2013-09-16 00:46:00,53.0,51.3,30.24,NE,46,1.0,1.0,94,0.00,,BKN032,0.00,VWS V14.01,2013-09-16 05:46:00,
2013-09-16 00:51:00,52.9,51.2,30.24,NNE,22,0.0,1.0,94,0.00,,BKN032,0.00,VWS V14.01,2013-09-16 05:51:00,
2013-09-16 00:56:00,52.8,51.1,30.24,NNE,26,1.0,3.0,94,0.00,,FEW036,0.00,VWS V14.01,2013-09-16 05:56:00,
2013-09-16 01:01:00,52.6,50.9,30.25,NE,49,1.0,2.0,94,0.00,,FEW036,0.00,VWS V14.01,2013-09-16 06:01:00,
2013-09-16 01:06:00,52.6,50.9,30.25,North,356,0.0,2.0,94,0.00,,FEW036,0.00,VWS V14.01,2013-09-16 06:06:00,
2013-09-16 01:11:00,52.3,50.6,30.25,SSE,161,0.0,2.0,94,0.00,,FEW036,0.00,VWS V14.01,2013-09-16 06:11:00,
2013-09-16 01:16:00,52.2,50.5,30.25,NNE,33,3.0,4.0,94,0.00,,FEW036,0.00,VWS V14.01,2013-09-16 06:16:00,
2013-09-16 01:21:00,52.0,50.3,30.25,North,11,1.0,4.0,94,0.00,,FEW036,0.00,VWS V14.01,2013-09-16 06:21:00,
2013-09-16 01:26:00,51.9,50.2,30.25,NE,47,0.0,4.0,94,0.00,,FEW036,0.00,VWS V14.01,2013-09-16 06:26:00,
2013-09-16 01:31:00,51.8,50.1,30.25,ENE,58,0.0,1.0,94,0.00,,FEW036,0.00,VWS V14.01,2013-09-16 06:31:00,
2013-09-16 01:36:00,51.6,49.9,30.25,NE,43,0.0,1.0,94,0.00,,FEW036,0.00,VWS V14.01,2013-09-16 06:36:00,
2013-09-16 01:41:00,51.5,49.8,30.25,NNE,13,0.0,1.0,94,0.00,,FEW036,0.00,VWS V14.01,2013-09-16 06:41:00,
2013-09-16 01:46:00,51.4,49.7,30.25,NNE,16,0.0,1.0,94,0.00,,FEW036,0.00,VWS V14.01,2013-09-16 06:46:00,
2013-09-16 01:51:00,51.2,49.5,30.25,NE,49,0.0,1.0,94,0.00,,FEW036,0.00,VWS V14.01,2013-09-16 06:51:00,
2013-09-16 01:56:00,51.2,49.5,30.25,NNE,33,0.0,2.0,94,0.00,,FEW036,0.00,VWS V14.01,2013-09-16 06:56:00,
2013-09-16 02:01:00,51.0,49.3,30.25,NNE,30,0.0,0.0,94,0.00,,CLR,0.00,VWS V14.01,2013-09-16 07:01:00,
2013-09-16 02:06:00,50.9,49.2,30.25,NE,42,0.0,1.0,94,0.00,,CLR,0.00,VWS V14.01,2013-09-16 07:06:00,
2013-09-16 02:11:00,50.8,49.1,30.25,NE,42,0.0,1.0,94,0.00,,CLR,0.00,VWS V14.01,2013-09-16 07:11:00,
2013-09-16 02:16:00,50.6,48.9,30.25,NE,52,1.0,2.0,94,0.00,,CLR,0.00,VWS V14.01,2013-09-16 07:16:00,
2013-09-16 02:21:00,50.4,49.0,30.25,NNE,13,0.0,2.0,95,0.00,,CLR,0.00,VWS V14.01,2013-09-16 07:21:00,
2013-09-16 02:26:00,50.4,49.0,30.25,NNE,16,0.0,2.0,95,0.00,,CLR,0.00,VWS V14.01,2013-09-16 07:26:00,
2013-09-16 02:31:00,50.3,48.9,30.26,NE,50,0.0,0.0,95,0.00,,CLR,0.00,VWS V14.01,2013-09-16 07:31:00,
2013-09-16 02:36:00,50.1,48.7,30.26,NE,50,0.0,1.0,95,0.00,,CLR,0.00,VWS V14.01,2013-09-16 07:36:00,
2013-09-16 02:41:00,50.0,48.6,30.26,NE,50,0.0,1.0,95,0.00,,CLR,0.00,VWS V14.01,2013-09-16 07:41:00,
2013-09-16 02:46:00,49.9,48.5,30.26,NE,50,0.0,1.0,95,0.00,,CLR,0.00,VWS V14.01,2013-09-16 07:46:00,
2013-09-16 02:51:00,49.7,48.3,30.26,NE,43,0.0,1.0,95,0.00,,CLR,0.00,VWS V14.01,2013-09-16 07:51:00,
2013-09-16 02:56:00,49.7,48.3,30.26,NE,43,0.0,1.0,95,0.00,,CLR,0.00,VWS V14.01,2013-09-16 07:56:00,
2013-09-16 03:01:00,49.6,48.2,30.26,NE,50,0.0,0.0,95,0.00,,CLR,0.00,VWS V14.01,2013-09-16 08:01:00,
2013-09-16 03:06:00,49.5,48.4,30.26,NE,51,0.0,1.0,96,0.00,,CLR,0.00,VWS V14.01,2013-09-16 08:06:00,
2013-09-16 03:11:00,49.5,48.4,30.26,NNE,32,0.0,1.0,96,0.00,,CLR,0.00,VWS V14.01,2013-09-16 08:11:00,
2013-09-16 03:16:00,49.3,48.2,30.26,NNE,33,0.0,1.0,96,0.00,,CLR,0.00,VWS V14.01,2013-09-16 08:16:00,
2013-09-16 03:21:00,49.2,48.1,30.26,NNW,327,0.0,1.0,96,0.00,,CLR,0.00,VWS V14.01,2013-09-16 08:21:00,
2013-09-16 03:26:00,49.1,48.0,30.26,NNW,327,0.0,1.0,96,0.00,,CLR,0.00,VWS V14.01,2013-09-16 08:26:00,
2013-09-16 03:31:00,49.0,47.9,30.26,NNW,345,0.0,0.0,96,0.00,,CLR,0.00,VWS V14.01,2013-09-16 08:31:00,
2013-09-16 03:36:00,48.9,47.8,30.26,North,354,0.0,0.0,96,0.00,,CLR,0.00,VWS V14.01,2013-09-16 08:36:00,
2013-09-16 03:41:00,48.8,47.7,30.26,North,358,0.0,1.0,96,0.00,,CLR,0.00,VWS V14.01,2013-09-16 08:41:00,
2013-09-16 03:46:00,48.7,47.6,30.26,North,359,0.0,1.0,96,0.00,,CLR,0.00,VWS V14.01,2013-09-16 08:46:00,
2013-09-16 03:51:00,48.5,47.4,30.27,NNE,25,0.0,1.0,96,0.00,,CLR,0.00,VWS V14.01,2013-09-16 08:51:00,
2013-09-16 03:56:00,48.5,47.4,30.27,NNE,25,0.0,1.0,96,0.00,,CLR,0.00,VWS V14.01,2013-09-16 08:56:00,
2013-09-16 04:01:00,48.4,47.3,30.27,NNE,25,0.0,0.0,96,0.00,,CLR,0.00,VWS V14.01,2013-09-16 09:01:00,
2013-09-16 04:06:00,48.2,47.1,30.27,NNE,25,0.0,0.0,96,0.00,,CLR,0.00,VWS V14.01,2013-09-16 09:06:00,
2013-09-16 04:11:00,48.1,47.0,30.27,NNE,25,0.0,0.0,96,0.00,,CLR,0.00,VWS V14.01,2013-09-16 09:11:00,
2013-09-16 04:16:00,48.0,46.9,30.27,NNE,25,0.0,0.0,96,0.00,,CLR,0.00,VWS V14.01,2013-09-16 09:16:00,
2013-09-16 04:21:00,48.0,46.9,30.27,NNE,23,0.0,0.0,96,0.00,,CLR,0.00,VWS V14.01,2013-09-16 09:21:00,
2013-09-16 04:26:00,47.8,46.7,30.28,NNE,23,0.0,0.0,96,0.00,,CLR,0.00,VWS V14.01,2013-09-16 09:26:00,
2013-09-16 04:31:00,47.7,46.6,30.28,NNE,23,0.0,0.0,96,0.00,,CLR,0.00,VWS V14.01,2013-09-16 09:31:00,
2013-09-16 04:36:00,47.6,46.5,30.28,NNE,23,0.0,0.0,96,0.00,,CLR,0.00,VWS V14.01,2013-09-16 09:36:00,
2013-09-16 04:41:00,47.5,46.4,30.28,NNE,23,0.0,0.0,96,0.00,,CLR,0.00,VWS V14.01,2013-09-16 09:41:00,
2013-09-16 04:46:00,47.4,46.3,30.28,NNE,23,0.0,0.0,96,0.00,,CLR,0.00,VWS V14.01,2013-09-16 09:46:00,
2013-09-16 04:51:00,47.3,46.2,30.28,NNE,23,0.0,0.0,96,0.00,,CLR,0.00,VWS V14.01,2013-09-16 09:51:00,
2013-09-16 04:56:00,47.2,46.4,30.27,NNE,23,0.0,0.0,97,0.00,,CLR,0.00,VWS V14.01,2013-09-16 09:56:00,
2013-09-16 05:01:00,47.1,46.3,30.28,NNE,23,0.0,0.0,97,0.00,,,0.00,VWS V14.01,2013-09-16 10:01:00,
2013-09-16 05:06:00,47.0,46.2,30.28,NNE,23,0.0,0.0,97,0.00,,,0.00,VWS V14.01,2013-09-16 10:06:00,
2013-09-16 05:11:00,47.0,46.2,30.28,NNE,23,0.0,0.0,97,0.00,,,0.00,VWS V14.01,2013-09-16 10:11:00,
2013-09-16 05:16:00,46.9,46.1,30.28,NNE,23,0.0,0.0,97,0.00,,,0.00,VWS V14.01,2013-09-16 10:16:00,
2013-09-16 05:21:00,46.8,46.0,30.28,NNE,23,0.0,0.0,97,0.00,,,0.00,VWS V14.01,2013-09-16 10:21:00,
2013-09-16 05:26:00,46.7,45.9,30.28,NNE,23,0.0,0.0,97,0.00,,,0.00,VWS V14.01,2013-09-16 10:26:00,
2013-09-16 05:31:00,46.5,45.7,30.28,NNE,23,0.0,0.0,97,0.00,,,0.00,VWS V14.01,2013-09-16 10:31:00,
2013-09-16 05:36:00,46.5,45.7,30.29,NNE,23,0.0,0.0,97,0.00,,,0.00,VWS V14.01,2013-09-16 10:36:00,
2013-09-16 05:41:00,46.6,45.8,30.28,NNE,26,0.0,0.0,97,0.00,,,0.00,VWS V14.01,2013-09-16 10:41:00,
2013-09-16 05:46:00,46.6,45.8,30.28,NNE,26,0.0,1.0,97,0.00,,,0.00,VWS V14.01,2013-09-16 10:46:00,
2013-09-16 05:51:00,46.5,45.7,30.28,NNE,25,0.0,1.0,97,0.00,,,0.00,VWS V14.01,2013-09-16 10:51:00,
2013-09-16 05:56:00,46.5,45.7,30.28,NNE,25,0.0,1.0,97,0.00,,,0.00,VWS V14.01,2013-09-16 10:56:00,
2013-09-16 06:01:00,46.4,45.6,30.28,NNE,25,0.0,0.0,97,0.00,,,0.00,VWS V14.01,2013-09-16 11:01:00,
2013-09-16 06:06:00,46.3,45.5,30.29,NNE,25,0.0,0.0,97,0.00,,,0.00,VWS V14.01,2013-09-16 11:06:00,
2013-09-16 06:10:00,46.1,45.3,30.29,NNE,25,0.0,0.0,97,0.00,,,0.00,VWS V14.01,2013-09-16 11:10:00,
2013-09-16 06:15:00,46.0,45.2,30.29,NNE,25,0.0,0.0,97,0.00,,,0.00,VWS V14.01,2013-09-16 11:15:00,
2013-09-16 06:20:00,45.9,45.1,30.29,NNE,25,0.0,0.0,97,0.00,,,0.00,VWS V14.01,2013-09-16 11:20:00,
2013-09-16 06:25:00,45.8,45.0,30.30,NNE,25,0.0,0.0,97,0.00,,,0.00,VWS V14.01,2013-09-16 11:25:00,
2013-09-16 06:30:00,45.8,45.0,30.30,NNE,25,0.0,0.0,97,0.00,,,0.00,VWS V14.01,2013-09-16 11:30:00,
2013-09-16 06:35:00,45.7,44.9,30.30,NNE,25,0.0,0.0,97,0.00,,,0.00,VWS V14.01,2013-09-16 11:35:00,
2013-09-16 06:40:00,45.5,44.7,30.30,NNE,25,0.0,0.0,97,0.00,,,0.00,VWS V14.01,2013-09-16 11:40:00,
2013-09-16 06:45:00,45.5,44.7,30.30,NNE,25,0.0,0.0,97,0.00,,,0.00,VWS V14.01,2013-09-16 11:45:00,
2013-09-16 06:50:00,45.4,44.6,30.31,NNE,25,0.0,0.0,97,0.00,,,0.00,VWS V14.01,2013-09-16 11:50:00,
2013-09-16 06:55:00,45.4,44.6,30.31,NNE,25,0.0,0.0,97,0.00,,,0.00,VWS V14.01,2013-09-16 11:55:00,
2013-09-16 07:00:00,45.3,44.5,30.31,NNE,25,0.0,0.0,97,0.00,,,0.00,VWS V14.01,2013-09-16 12:00:00,
2013-09-16 07:05:00,45.2,44.4,30.31,NNE,25,0.0,0.0,97,0.00,,,0.00,VWS V14.01,2013-09-16 12:05:00,
2013-09-16 07:10:00,45.2,44.4,30.31,NNE,25,0.0,0.0,97,0.00,,,0.00,VWS V14.01,2013-09-16 12:10:00,
2013-09-16 07:15:00,45.2,44.4,30.31,NNE,25,0.0,0.0,97,0.00,,,0.00,VWS V14.01,2013-09-16 12:15:00,
2013-09-16 07:20:00,45.4,44.6,30.31,NNE,25,0.0,0.0,97,0.00,,,0.00,VWS V14.01,2013-09-16 12:20:00,
2013-09-16 07:25:00,45.6,44.8,30.31,NNE,25,0.0,0.0,97,0.00,,,0.00,VWS V14.01,2013-09-16 12:25:00,
2013-09-16 07:30:00,45.8,45.3,30.32,NNE,25,0.0,0.0,98,0.00,,,0.00,VWS V14.01,2013-09-16 12:30:00,
2013-09-16 07:35:00,46.3,45.8,30.32,NNE,26,0.0,1.0,98,0.00,,,0.00,VWS V14.01,2013-09-16 12:35:00,
2013-09-16 07:40:00,46.9,46.4,30.32,NNE,31,0.0,1.0,98,0.00,,,0.00,VWS V14.01,2013-09-16 12:40:00,
2013-09-16 07:45:00,47.7,47.2,30.32,NNE,30,0.0,1.0,98,0.00,,,0.00,VWS V14.01,2013-09-16 12:45:00,
2013-09-16 07:50:00,48.2,47.7,30.32,NNE,30,0.0,1.0,98,0.00,,,0.00,VWS V14.01,2013-09-16 12:50:00,
2013-09-16 07:55:00,48.6,48.1,30.32,NNE,31,0.0,1.0,98,0.00,,,0.00,VWS V14.01,2013-09-16 12:55:00,
2013-09-16 08:00:00,49.0,48.2,30.32,ENE,73,1.0,1.0,97,0.00,,CLR,0.00,VWS V14.01,2013-09-16 13:00:00,
2013-09-16 08:05:00,49.3,48.2,30.32,NNE,15,0.0,2.0,96,0.00,,CLR,0.00,VWS V14.01,2013-09-16 13:05:00,
2013-09-16 08:10:00,49.9,48.5,30.32,NNE,16,0.0,2.0,95,0.00,,CLR,0.00,VWS V14.01,2013-09-16 13:10:00,
2013-09-16 08:15:00,50.3,48.6,30.32,NE,43,0.0,2.0,94,0.00,,CLR,0.00,VWS V14.01,2013-09-16 13:15:00,
2013-09-16 08:20:00,50.6,48.7,30.32,ENE,61,0.0,2.0,93,0.00,,CLR,0.00,VWS V14.01,2013-09-16 13:20:00,
2013-09-16 08:25:00,50.8,48.6,30.32,NE,53,0.0,2.0,92,0.00,,CLR,0.00,VWS V14.01,2013-09-16 13:25:00,
2013-09-16 08:30:00,51.1,48.6,30.32,ENE,57,0.0,2.0,91,0.00,,CLR,0.00,VWS V14.01,2013-09-16 13:30:00,
2013-09-16 08:35:00,50.8,47.7,30.33,ENE,61,0.0,1.0,89,0.00,,CLR,0.00,VWS V14.01,2013-09-16 13:35:00,
2013-09-16 08:40:00,50.2,47.4,30.33,ENE,62,0.0,1.0,90,0.00,,CLR,0.00,VWS V14.01,2013-09-16 13:40:00,
2013-09-16 08:45:00,49.8,47.3,30.33,ENE,61,0.0,1.0,91,0.00,,CLR,0.00,VWS V14.01,2013-09-16 13:45:00,
2013-09-16 08:50:00,49.7,47.5,30.33,ENE,60,0.0,1.0,92,0.00,,BKN026,0.00,VWS V14.01,2013-09-16 13:50:00,
2013-09-16 08:55:00,50.2,48.5,30.33,ESE,106,0.0,1.0,94,0.00,,BKN026,0.00,VWS V14.01,2013-09-16 13:55:00,
2013-09-16 09:00:00,51.5,50.1,30.33,NE,56,2.0,3.0,95,0.00,,BKN033,0.00,VWS V14.01,2013-09-16 14:00:00,
2013-09-16 09:05:00,52.5,50.5,30.33,ENE,76,2.0,6.0,93,0.00,,BKN033,0.00,VWS V14.01,2013-09-16 14:05:00,
2013-09-16 09:10:00,53.7,51.4,30.33,East,84,1.0,8.0,92,0.00,,BKN033,0.00,VWS V14.01,2013-09-16 14:10:00,
2013-09-16 09:15:00,54.5,51.6,30.34,ENE,73,2.0,8.0,90,0.00,,BKN033,0.00,VWS V14.01,2013-09-16 14:15:00,
2013-09-16 09:20:00,54.7,51.5,30.34,ESE,114,4.0,9.0,89,0.00,,BKN033,0.00,VWS V14.01,2013-09-16 14:20:00,
2013-09-16 09:25:00,54.4,50.6,30.34,ESE,111,4.0,9.0,87,0.00,,BKN030,0.00,VWS V14.01,2013-09-16 14:25:00,
2013-09-16 09:30:00,53.8,50.6,30.34,ESE,112,3.0,9.0,89,0.00,,BKN030,0.00,VWS V14.01,2013-09-16 14:30:00,
2013-09-16 09:35:00,53.6,50.7,30.34,ESE,120,2.0,8.0,90,0.00,,BKN030,0.00,VWS V14.01,2013-09-16 14:35:00,
2013-09-16 09:40:00,53.4,50.8,30.34,East,89,3.0,8.0,91,0.00,,BKN030,0.00,VWS V14.01,2013-09-16 14:40:00,
2013-09-16 09:45:00,53.8,51.2,30.34,ESE,121,7.0,8.0,91,0.00,,BKN030,0.00,VWS V14.01,2013-09-16 14:45:00,
2013-09-16 09:50:00,53.6,51.0,30.34,ESE,113,3.0,8.0,91,0.00,,BKN030,0.00,VWS V14.01,2013-09-16 14:50:00,
2013-09-16 09:55:00,53.8,51.5,30.34,ESE,104,7.0,9.0,92,0.00,,BKN030,0.00,VWS V14.01,2013-09-16 14:55:00,
2013-09-16 10:00:00,53.9,51.3,30.34,East,91,7.0,10.0,91,0.00,,BKN032,0.00,VWS V14.01,2013-09-16 15:00:00,
2013-09-16 10:05:00,54.3,52.0,30.34,East,95,2.0,9.0,92,0.00,,BKN032,0.00,VWS V14.01,2013-09-16 15:05:00,
2013-09-16 10:10:00,54.8,51.9,30.34,ESE,114,6.0,9.0,90,0.00,,BKN032,0.00,VWS V14.01,2013-09-16 15:10:00,
2013-09-16 10:15:00,54.9,52.0,30.34,East,89,5.0,9.0,90,0.00,,BKN032,0.00,VWS V14.01,2013-09-16 15:15:00,
2013-09-16 10:20:00,55.0,52.1,30.34,East,93,2.0,9.0,90,0.00,,BKN032,0.00,VWS V14.01,2013-09-16 15:20:00,
2013-09-16 10:25:00,55.2,52.3,30.34,ESE,116,7.0,9.0,90,0.00,,BKN032,0.00,VWS V14.01,2013-09-16 15:25:00,
2013-09-16 10:30:00,55.3,52.1,30.35,ESE,108,6.0,9.0,89,0.00,,OVC028,0.00,VWS V14.01,2013-09-16 15:30:00,
2013-09-16 10:35:00,55.6,52.7,30.35,ESE,107,5.0,8.0,90,0.00,,OVC028,0.00,VWS V14.01,2013-09-16 15:35:00,
2013-09-16 10:40:00,55.7,52.5,30.35,East,96,6.0,10.0,89,0.00,,OVC028,0.00,VWS V14.01,2013-09-16 15:40:00,
2013-09-16 10:45:00,55.8,52.3,30.35,ESE,108,5.0,10.0,88,0.00,,OVC028,0.00,VWS V14.01,2013-09-16 15:45:00,
2013-09-16 10:50:00,56.1,52.6,30.35,SE,143,5.0,12.0,88,0.00,,OVC028,0.00,VWS V14.01,2013-09-16 15:50:00,
2013-09-16 10:55:00,56.3,52.8,30.35,East,98,7.0,12.0,88,0.00,,OVC028,0.00,VWS V14.01,2013-09-16 15:55:00,
2013-09-16 11:00:00,56.5,53.0,30.35,ESE,116,6.0,12.0,88,0.00,,OVC012,0.00,VWS V14.01,2013-09-16 16:00:00,
2013-09-16 11:05:00,56.6,52.8,30.35,ESE,104,7.0,8.0,87,0.00,,OVC012,0.00,VWS V14.01,2013-09-16 16:05:00,
2013-09-16 11:10:00,56.6,52.5,30.34,ESE,117,3.0,8.0,86,0.00,,OVC012,0.00,VWS V14.01,2013-09-16 16:10:00,
2013-09-16 11:15:00,57.0,52.9,30.34,ENE,62,3.0,9.0,86,0.00,,OVC012,0.00,VWS V14.01,2013-09-16 16:15:00,
2013-09-16 11:20:00,57.0,53.2,30.34,ESE,112,5.0,9.0,87,0.00,,OVC012,0.00,VWS V14.01,2013-09-16 16:20:00,
2013-09-16 11:25:00,57.3,53.2,30.34,SE,134,5.0,9.0,86,0.00,,OVC012,0.00,VWS V14.01,2013-09-16 16:25:00,
2013-09-16 11:30:00,57.4,53.2,30.34,ESE,110,5.0,9.0,86,0.00,,OVC012,0.00,VWS V14.01,2013-09-16 16:30:00,
2013-09-16 11:35:00,57.6,53.5,30.34,ESE,104,4.0,7.0,86,0.00,,OVC012,0.00,VWS V14.01,2013-09-16 16:35:00,
2013-09-16 11:40:00,57.9,53.1,30.34,ESE,104,7.0,8.0,84,0.00,,OVC012,0.00,VWS V14.01,2013-09-16 16:40:00,
2013-09-16 11:45:00,58.0,53.5,30.34,SE,141,4.0,8.0,85,0.00,,OVC012,0.00,VWS V14.01,2013-09-16 16:45:00,
2013-09-16 11:50:00,58.4,54.2,30.34,East,101,7.0,8.0,86,0.00,,OVC012,0.00,VWS V14.01,2013-09-16 16:50:00,
2013-09-16 11:55:00,58.5,53.0,30.34,SE,135,5.0,9.0,82,0.00,,OVC012,0.00,VWS V14.01,2013-09-16 16:55:00,
2013-09-16 12:00:00,58.5,53.4,30.34,ENE,77,2.0,9.0,83,0.00,,OVC014,0.00,VWS V14.01,2013-09-16 17:00:00,
2013-09-16 12:05:00,58.7,53.6,30.34,ESE,109,4.0,6.0,83,0.00,,OVC014,0.00,VWS V14.01,2013-09-16 17:05:00,
2013-09-16 12:10:00,58.8,54.3,30.34,SE,129,5.0,7.0,85,0.00,,OVC014,0.00,VWS V14.01,2013-09-16 17:10:00,
2013-09-16 12:15:00,59.7,54.9,30.34,SSE,148,7.0,7.0,84,0.00,,OVC014,0.00,VWS V14.01,2013-09-16 17:15:00,
2013-09-16 12:20:00,59.7,53.9,30.34,SSE,156,4.0,7.0,81,0.00,,OVC016,0.00,VWS V14.01,2013-09-16 17:20:00,
2013-09-16 12:25:00,59.7,53.5,30.34,ESE,103,6.0,9.0,80,0.00,,OVC016,0.00,VWS V14.01,2013-09-16 17:25:00,
2013-09-16 12:30:00,59.5,53.7,30.34,East,96,4.0,9.0,81,0.00,,OVC016,0.00,VWS V14.01,2013-09-16 17:30:00,
2013-09-16 12:35:00,59.4,53.9,30.34,ESE,113,7.0,9.0,82,0.00,,OVC016,0.00,VWS V14.01,2013-09-16 17:35:00,
2013-09-16 12:40:00,59.4,54.2,30.34,ESE,118,4.0,9.0,83,0.00,,OVC016,0.00,VWS V14.01,2013-09-16 17:40:00,
2013-09-16 12:45:00,59.6,53.8,30.34,SE,125,4.0,9.0,81,0.00,,OVC016,0.00,VWS V14.01,2013-09-16 17:45:00,
2013-09-16 12:50:00,59.6,53.8,30.34,ESE,116,7.0,9.0,81,0.00,,OVC016,0.00,VWS V14.01,2013-09-16 17:50:00,
2013-09-16 12:55:00,59.6,53.1,30.34,ESE,109,3.0,10.0,79,0.00,,OVC016,0.00,VWS V14.01,2013-09-16 17:55:00,
2013-09-16 13:00:00,60.4,54.9,30.34,ENE,64,0.0,10.0,82,0.00,,OVC022,0.00,VWS V14.01,2013-09-16 18:00:00,
2013-09-16 13:05:00,60.9,53.3,30.34,SE,125,5.0,8.0,76,0.00,,OVC022,0.00,VWS V14.01,2013-09-16 18:05:00,
2013-09-16 13:10:00,60.6,53.7,30.34,ESE,110,3.0,8.0,78,0.00,,OVC022,0.00,VWS V14.01,2013-09-16 18:10:00,
2013-09-16 13:15:00,61.2,54.3,30.34,ESE,106,7.0,10.0,78,0.00,,OVC022,0.00,VWS V14.01,2013-09-16 18:15:00,
2013-09-16 13:20:00,61.5,52.8,30.33,ESE,123,4.0,10.0,73,0.00,,OVC022,0.00,VWS V14.01,2013-09-16 18:20:00,
2013-09-16 13:25:00,61.6,54.0,30.33,ESE,118,5.0,10.0,76,0.00,,OVC022,0.00,VWS V14.01,2013-09-16 18:25:00,
2013-09-16 13:30:00,61.6,52.1,30.33,SSE,158,3.0,10.0,71,0.00,,OVC022,0.00,VWS V14.01,2013-09-16 18:30:00,
2013-09-16 13:35:00,61.9,53.9,30.33,ESE,107,1.0,6.0,75,0.00,,OVC022,0.00,VWS V14.01,2013-09-16 18:35:00,
2013-09-16 13:40:00,62.0,52.5,30.33,SE,129,7.0,7.0,71,0.00,,OVC022,0.00,VWS V14.01,2013-09-16 18:40:00,
2013-09-16 13:45:00,61.6,52.9,30.33,NNW,346,2.0,7.0,73,0.00,,OVC022,0.00,VWS V14.01,2013-09-16 18:45:00,
2013-09-16 13:50:00,61.5,53.2,30.33,ENE,73,1.0,7.0,74,0.00,,OVC022,0.00,VWS V14.01,2013-09-16 18:50:00,
2013-09-16 13:55:00,61.7,53.0,30.32,ESE,123,3.0,7.0,73,0.00,,OVC022,0.00,VWS V14.01,2013-09-16 18:55:00,
2013-09-16 14:00:00,61.9,53.2,30.32,East,88,4.0,7.0,73,0.00,,OVC028,0.00,VWS V14.01,2013-09-16 19:00:00,
2013-09-16 14:05:00,62.0,53.6,30.32,ENE,68,0.0,2.0,74,0.00,,OVC028,0.00,VWS V14.01,2013-09-16 19:05:00,
2013-09-16 14:10:00,61.9,54.3,30.31,SE,131,1.0,10.0,76,0.00,,OVC028,0.00,VWS V14.01,2013-09-16 19:10:00,
2013-09-16 14:15:00,62.2,51.9,30.31,ESE,110,2.0,10.0,69,0.00,,SCT028,0.00,VWS V14.01,2013-09-16 19:15:00,
2013-09-16 14:20:00,62.3,52.0,30.31,ESE,108,6.0,10.0,69,0.00,,SCT028,0.00,VWS V14.01,2013-09-16 19:20:00,
2013-09-16 14:25:00,62.1,53.0,30.30,East,84,3.0,10.0,72,0.00,,SCT028,0.00,VWS V14.01,2013-09-16 19:25:00,
2013-09-16 14:30:00,61.6,52.1,30.30,East,100,6.0,10.0,71,0.00,,SCT028,0.00,VWS V14.01,2013-09-16 19:30:00,
2013-09-16 14:35:00,61.9,52.0,30.30,SE,138,4.0,5.0,70,0.00,,SCT028,0.00,VWS V14.01,2013-09-16 19:35:00,
2013-09-16 14:40:00,62.5,52.6,30.30,SE,131,3.0,5.0,70,0.00,,SCT028,0.00,VWS V14.01,2013-09-16 19:40:00,
2013-09-16 14:45:00,63.5,52.4,30.29,SE,125,0.0,5.0,67,0.00,,SCT028,0.00,VWS V14.01,2013-09-16 19:45:00,
2013-09-16 14:50:00,64.3,53.9,30.29,ESE,118,4.0,7.0,69,0.00,,SCT028,0.00,VWS V14.01,2013-09-16 19:50:00,
2013-09-16 14:55:00,64.9,54.5,30.29,NE,46,0.0,7.0,69,0.00,,SCT028,0.00,VWS V14.01,2013-09-16 19:55:00,
2013-09-16 15:00:00,65.2,53.6,30.29,ENE,60,0.0,7.0,66,0.00,,CLR,0.00,VWS V14.01,2013-09-16 20:00:00,
2013-09-16 15:05:00,65.6,56.0,30.28,SW,228,3.0,4.0,71,0.00,,CLR,0.00,VWS V14.01,2013-09-16 20:05:00,
2013-09-16 15:10:00,65.4,52.1,30.28,ESE,105,3.0,10.0,62,0.00,,CLR,0.00,VWS V14.01,2013-09-16 20:10:00,
2013-09-16 15:15:00,64.9,52.5,30.28,SE,133,6.0,10.0,64,0.00,,CLR,0.00,VWS V14.01,2013-09-16 20:15:00,
2013-09-16 15:20:00,64.5,51.6,30.28,East,101,6.0,10.0,63,0.00,,CLR,0.00,VWS V14.01,2013-09-16 20:20:00,
2013-09-16 15:25:00,63.7,50.9,30.28,ESE,120,7.0,10.0,63,0.00,,CLR,0.00,VWS V14.01,2013-09-16 20:25:00,
2013-09-16 15:30:00,63.3,51.3,30.28,East,96,6.0,10.0,65,0.00,,CLR,0.00,VWS V14.01,2013-09-16 20:30:00,
2013-09-16 15:35:00,63.5,51.5,30.28,SE,141,3.0,5.0,65,0.00,,CLR,0.00,VWS V14.01,2013-09-16 20:35:00,
2013-09-16 15:40:00,64.0,51.6,30.28,SSE,148,2.0,5.0,64,0.00,,CLR,0.00,VWS V14.01,2013-09-16 20:40:00,
2013-09-16 15:45:00,64.6,52.2,30.28,SE,145,3.0,5.0,64,0.00,,CLR,0.00,VWS V14.01,2013-09-16 20:45:00,
2013-09-16 15:50:00,65.2,52.7,30.28,SSW,203,7.0,12.0,64,0.00,,CLR,0.00,VWS V14.01,2013-09-16 20:50:00,
2013-09-16 15:55:00,65.2,52.3,30.28,SSE,152,6.0,12.0,63,0.00,,CLR,0.00,VWS V14.01,2013-09-16 20:55:00,
2013-09-16 16:00:00,64.9,52.9,30.27,SE,139,5.0,12.0,65,0.00,,CLR,0.00,VWS V14.01,2013-09-16 21:00:00,
2013-09-16 16:05:00,64.5,52.5,30.27,ESE,117,6.0,7.0,65,0.00,,BKN034,0.00,VWS V14.01,2013-09-16 21:05:00,
2013-09-16 16:10:00,63.9,52.7,30.27,SSE,150,4.0,7.0,67,0.00,,BKN034,0.00,VWS V14.01,2013-09-16 21:10:00,
2013-09-16 16:15:00,63.6,52.0,30.26,South,189,1.0,7.0,66,0.00,,BKN034,0.00,VWS V14.01,2013-09-16 21:15:00,
2013-09-16 16:20:00,64.1,51.7,30.26,SSW,194,1.0,7.0,64,0.00,,BKN034,0.00,VWS V14.01,2013-09-16 21:20:00,
2013-09-16 16:25:00,65.1,52.6,30.26,ESE,119,5.0,7.0,64,0.00,,BKN034,0.00,VWS V14.01,2013-09-16 21:25:00,
2013-09-16 16:30:00,65.4,52.5,30.25,SSE,156,2.0,7.0,63,0.00,,BKN034,0.00,VWS V14.01,2013-09-16 21:30:00,
2013-09-16 16:35:00,65.2,52.3,30.25,ESE,122,6.0,11.0,63,0.00,,BKN034,0.00,VWS V14.01,2013-09-16 21:35:00,
2013-09-16 16:40:00,65.1,52.2,30.25,ESE,105,6.0,11.0,63,0.00,,BKN034,0.00,VWS V14.01,2013-09-16 21:40:00,
2013-09-16 16:45:00,65.0,52.1,30.25,ESE,121,4.0,11.0,63,0.00,,BKN034,0.00,VWS V14.01,2013-09-16 21:45:00,
2013-09-16 16:50:00,65.0,52.1,30.25,ESE,120,9.0,11.0,63,0.00,,BKN034,0.00,VWS V14.01,2013-09-16 21:50:00,
2013-09-16 16:55:00,64.8,51.9,30.25,ESE,112,8.0,11.0,63,0.00,,BKN034,0.00,VWS V14.01,2013-09-16 21:55:00,
2013-09-16 17:00:00,64.8,52.3,30.25,ESE,110,5.0,11.0,64,0.00,,FEW036,0.00,VWS V14.01,2013-09-16 22:00:00,
2013-09-16 17:05:00,64.9,52.5,30.25,SE,134,4.0,8.0,64,0.00,,FEW036,0.00,VWS V14.01,2013-09-16 22:05:00,
2013-09-16 17:10:00,65.0,52.5,30.24,SE,129,5.0,8.0,64,0.00,,FEW036,0.00,VWS V14.01,2013-09-16 22:10:00,
2013-09-16 17:15:00,65.0,52.1,30.24,SE,145,7.0,11.0,63,0.00,,FEW036,0.00,VWS V14.01,2013-09-16 22:15:00,
2013-09-16 17:20:00,64.8,51.5,30.24,SSE,156,3.0,11.0,62,0.00,,FEW036,0.00,VWS V14.01,2013-09-16 22:20:00,
2013-09-16 17:25:00,65.0,52.1,30.24,SE,135,4.0,11.0,63,0.00,,FEW036,0.00,VWS V14.01,2013-09-16 22:25:00,
2013-09-16 17:30:00,65.0,52.1,30.24,SSE,160,4.0,11.0,63,0.00,,FEW036,0.00,VWS V14.01,2013-09-16 22:30:00,
2013-09-16 17:35:00,64.9,52.0,30.24,SE,125,5.0,8.0,63,0.00,,FEW036,0.00,VWS V14.01,2013-09-16 22:35:00,
2013-09-16 17:40:00,64.8,52.3,30.24,SSE,162,6.0,8.0,64,0.00,,FEW036,0.00,VWS V14.01,2013-09-16 22:40:00,
2013-09-16 17:45:00,64.7,53.1,30.24,SSE,148,7.0,8.0,66,0.00,,FEW036,0.00,VWS V14.01,2013-09-16 22:45:00,
2013-09-16 17:50:00,64.6,52.6,30.24,SSW,201,2.0,8.0,65,0.00,,FEW036,0.00,VWS V14.01,2013-09-16 22:50:00,
2013-09-16 17:55:00,64.7,53.1,30.23,SE,137,3.0,8.0,66,0.00,,FEW036,0.00,VWS V14.01,2013-09-16 22:55:00,
2013-09-16 18:00:00,64.9,53.3,30.23,SE,145,3.0,8.0,66,0.00,,CLR,0.00,VWS V14.01,2013-09-16 23:00:00,
2013-09-16 18:05:00,65.0,53.0,30.24,South,184,3.0,6.0,65,0.00,,CLR,0.00,VWS V14.01,2013-09-16 23:05:00,
2013-09-16 18:10:00,65.1,53.1,30.24,SSW,211,2.0,7.0,65,0.00,,CLR,0.00,VWS V14.01,2013-09-16 23:10:00,
2013-09-16 18:15:00,65.0,53.4,30.24,SSE,156,3.0,7.0,66,0.00,,CLR,0.00,VWS V14.01,2013-09-16 23:15:00,
2013-09-16 18:20:00,64.8,52.8,30.24,SSE,150,3.0,7.0,65,0.00,,CLR,0.00,VWS V14.01,2013-09-16 23:20:00,
2013-09-16 18:25:00,64.7,52.7,30.24,SSE,160,2.0,7.0,65,0.00,,CLR,0.00,VWS V14.01,2013-09-16 23:25:00,
2013-09-16 18:30:00,64.5,52.9,30.23,SW,217,4.0,7.0,66,0.00,,CLR,0.00,VWS V14.01,2013-09-16 23:30:00,
2013-09-16 18:35:00,64.4,53.2,30.23,SW,217,1.0,4.0,67,0.00,,CLR,0.00,VWS V14.01,2013-09-16 23:35:00,
2013-09-16 18:40:00,64.3,53.1,30.23,SSW,210,3.0,4.0,67,0.00,,CLR,0.00,VWS V14.01,2013-09-16 23:40:00,
2013-09-16 18:45:00,64.1,53.7,30.23,SSE,148,1.0,5.0,69,0.00,,CLR,0.00,VWS V14.01,2013-09-16 23:45:00,
2013-09-16 18:50:00,63.8,53.5,30.23,SW,224,2.0,5.0,69,0.00,,CLR,0.00,VWS V14.01,2013-09-16 23:50:00,
2013-09-16 18:55:00,63.3,53.4,30.23,WSW,245,1.0,5.0,70,0.00,,CLR,0.00,VWS V14.01,2013-09-16 23:55:00,
2013-09-16 19:00:00,62.4,53.3,30.23,SW,215,0.0,5.0,72,0.00,,CLR,0.00,VWS V14.01,2013-09-17 00:00:00,
2013-09-16 19:05:00,61.5,53.2,30.23,SW,224,0.0,2.0,74,0.00,,CLR,0.00,VWS V14.01,2013-09-17 00:05:00,
2013-09-16 19:10:00,60.8,52.8,30.23,SW,232,0.0,2.0,75,0.00,,CLR,0.00,VWS V14.01,2013-09-17 00:10:00,
2013-09-16 19:15:00,60.2,52.6,30.23,SW,217,0.0,2.0,76,0.00,,CLR,0.00,VWS V14.01,2013-09-17 00:15:00,
2013-09-16 19:20:00,59.6,52.7,30.23,SSW,194,0.0,2.0,78,0.00,,CLR,0.00,VWS V14.01,2013-09-17 00:20:00,
2013-09-16 19:25:00,59.0,52.5,30.23,WSW,248,0.0,2.0,79,0.00,,CLR,0.00,VWS V14.01,2013-09-17 00:25:00,
2013-09-16 19:30:00,58.5,52.4,30.23,WSW,246,0.0,2.0,80,0.00,,CLR,0.00,VWS V14.01,2013-09-17 00:30:00,
2013-09-16 19:35:00,58.1,52.3,30.23,WSW,245,0.0,0.0,81,0.00,,CLR,0.00,VWS V14.01,2013-09-17 00:35:00,
2013-09-16 19:40:00,57.7,52.2,30.22,WSW,246,0.0,0.0,82,0.00,,CLR,0.00,VWS V14.01,2013-09-17 00:40:00,
2013-09-16 19:45:00,57.3,51.9,30.22,SW,234,0.0,0.0,82,0.00,,CLR,0.00,VWS V14.01,2013-09-17 00:45:00,
2013-09-16 19:50:00,57.0,51.9,30.22,SSW,213,0.0,0.0,83,0.00,,CLR,0.00,VWS V14.01,2013-09-17 00:50:00,
2013-09-16 19:55:00,56.8,52.0,30.22,SSW,212,0.0,0.0,84,0.00,,CLR,0.00,VWS V14.01,2013-09-17 00:55:00,
2013-09-16 20:00:00,56.5,51.7,30.22,SSW,212,0.0,0.0,84,0.00,,CLR,0.00,VWS V14.01,2013-09-17 01:00:00,
2013-09-16 20:05:00,56.4,52.0,30.22,SSW,213,0.0,0.0,85,0.00,,CLR,0.00,VWS V14.01,2013-09-17 01:05:00,
2013-09-16 20:10:00,56.3,51.9,30.22,SSW,212,0.0,0.0,85,0.00,,CLR,0.00,VWS V14.01,2013-09-17 01:10:00,
2013-09-16 20:15:00,56.1,51.7,30.22,SSW,212,0.0,0.0,85,0.00,,CLR,0.00,VWS V14.01,2013-09-17 01:15:00,
2013-09-16 20:20:00,55.9,51.8,30.22,SSW,212,0.0,0.0,86,0.00,,CLR,0.00,VWS V14.01,2013-09-17 01:20:00,
2013-09-16 20:25:00,55.7,51.9,30.22,SSW,212,0.0,0.0,87,0.00,,CLR,0.00,VWS V14.01,2013-09-17 01:25:00,
2013-09-16 20:30:00,55.7,52.2,30.22,SSW,213,0.0,0.0,88,0.00,,CLR,0.00,VWS V14.01,2013-09-17 01:30:00,
2013-09-16 20:35:00,55.5,52.0,30.22,SE,134,0.0,1.0,88,0.00,,CLR,0.00,VWS V14.01,2013-09-17 01:35:00,
2013-09-16 20:40:00,55.5,51.7,30.22,ESE,106,0.0,1.0,87,0.00,,CLR,0.00,VWS V14.01,2013-09-17 01:40:00,
2013-09-16 20:45:00,55.4,51.6,30.22,ESE,104,0.0,1.0,87,0.00,,CLR,0.00,VWS V14.01,2013-09-17 01:45:00,
2013-09-16 20:50:00,55.1,51.3,30.22,ESE,105,0.0,1.0,87,0.00,,CLR,0.00,VWS V14.01,2013-09-17 01:50:00,
2013-09-16 20:55:00,55.1,51.3,30.22,ESE,105,0.0,1.0,87,0.00,,CLR,0.00,VWS V14.01,2013-09-17 01:55:00,
2013-09-16 21:00:00,54.9,51.4,30.22,ESE,105,1.0,1.0,88,0.00,,CLR,0.00,VWS V14.01,2013-09-17 02:00:00,
2013-09-16 21:05:00,55.0,51.2,30.22,ESE,105,0.0,1.0,87,0.00,,CLR,0.00,VWS V14.01,2013-09-17 02:05:00,
2013-09-16 21:10:00,54.8,51.0,30.22,ESE,103,0.0,1.0,87,0.00,,CLR,0.00,VWS V14.01,2013-09-17 02:10:00,
2013-09-16 21:14:00,54.5,51.0,30.22,ESE,116,0.0,2.0,88,0.00,,CLR,0.00,VWS V14.01,2013-09-17 02:14:00,
2013-09-16 21:19:00,54.5,51.3,30.22,ESE,117,0.0,2.0,89,0.00,,CLR,0.00,VWS V14.01,2013-09-17 02:19:00,
2013-09-16 21:24:00,54.2,51.0,30.23,ESE,108,0.0,3.0,89,0.00,,CLR,0.00,VWS V14.01,2013-09-17 02:24:00,
2013-09-16 21:29:00,54.1,50.9,30.22,ESE,108,0.0,3.0,89,0.00,,CLR,0.00,VWS V14.01,2013-09-17 02:29:00,
2013-09-16 21:34:00,53.7,50.5,30.23,ESE,107,0.0,0.0,89,0.00,,CLR,0.00,VWS V14.01,2013-09-17 02:34:00,
2013-09-16 21:39:00,53.4,50.5,30.23,ESE,108,0.0,0.0,90,0.00,,CLR,0.00,VWS V14.01,2013-09-17 02:39:00,
2013-09-16 21:44:00,53.1,50.5,30.23,ESE,109,0.0,0.0,91,0.00,,CLR,0.00,VWS V14.01,2013-09-17 02:44:00,
2013-09-16 21:49:00,52.8,50.2,30.23,ESE,108,0.0,0.0,91,0.00,,CLR,0.00,VWS V14.01,2013-09-17 02:49:00,
2013-09-16 21:54:00,52.5,50.0,30.23,ESE,109,0.0,0.0,91,0.00,,CLR,0.00,VWS V14.01,2013-09-17 02:54:00,
2013-09-16 21:59:00,52.3,50.0,30.23,East,95,0.0,2.0,92,0.00,,CLR,0.00,VWS V14.01,2013-09-17 02:59:00,
2013-09-16 22:04:00,52.4,50.2,30.23,East,98,1.0,2.0,92,0.00,,CLR,0.00,VWS V14.01,2013-09-17 03:04:00,
2013-09-16 22:09:00,52.4,49.8,30.23,ESE,108,2.0,3.0,91,0.00,,CLR,0.00,VWS V14.01,2013-09-17 03:09:00,
2013-09-16 22:14:00,52.3,49.8,30.23,ESE,112,2.0,3.0,91,0.00,,CLR,0.00,VWS V14.01,2013-09-17 03:14:00,
2013-09-16 22:19:00,52.3,49.8,30.23,SE,129,1.0,3.0,91,0.00,,CLR,0.00,VWS V14.01,2013-09-17 03:19:00,
2013-09-16 22:24:00,52.1,49.3,30.23,SE,128,2.0,3.0,90,0.00,,CLR,0.00,VWS V14.01,2013-09-17 03:24:00,
2013-09-16 22:29:00,51.8,49.3,30.23,ESE,115,2.0,3.0,91,0.00,,CLR,0.00,VWS V14.01,2013-09-17 03:29:00,
2013-09-16 22:34:00,51.6,49.1,30.24,SE,128,2.0,3.0,91,0.00,,CLR,0.00,VWS V14.01,2013-09-17 03:34:00,
2013-09-16 22:39:00,51.4,48.9,30.23,ESE,122,3.0,3.0,91,0.00,,CLR,0.00,VWS V14.01,2013-09-17 03:39:00,
2013-09-16 22:44:00,51.3,48.8,30.23,SE,131,0.0,3.0,91,0.00,,CLR,0.00,VWS V14.01,2013-09-17 03:44:00,
2013-09-16 22:49:00,51.3,49.1,30.23,SE,128,2.0,3.0,92,0.00,,CLR,0.00,VWS V14.01,2013-09-17 03:49:00,
2013-09-16 22:54:00,51.7,49.5,30.23,SE,128,2.0,4.0,92,0.00,,CLR,0.00,VWS V14.01,2013-09-17 03:54:00,
2013-09-16 22:59:00,51.7,49.2,30.23,ESE,120,3.0,4.0,91,0.00,,CLR,0.00,VWS V14.01,2013-09-17 03:59:00,
2013-09-16 23:01:00,51.7,49.2,30.23,SE,128,3.0,3.0,91,0.00,,CLR,0.00,VWS V14.01,2013-09-17 04:01:00,
2013-09-16 23:06:00,51.4,48.9,30.23,SE,128,1.0,3.0,91,0.00,,CLR,0.00,VWS V14.01,2013-09-17 04:06:00,
2013-09-16 23:11:00,51.2,48.7,30.24,ESE,110,2.0,3.0,91,0.00,,CLR,0.00,VWS V14.01,2013-09-17 04:11:00,
2013-09-16 23:16:00,50.9,48.4,30.24,ESE,113,3.0,3.0,91,0.00,,CLR,0.00,VWS V14.01,2013-09-17 04:16:00,
2013-09-16 23:21:00,50.7,48.5,30.24,ESE,107,4.0,5.0,92,0.00,,CLR,0.00,VWS V14.01,2013-09-17 04:21:00,
2013-09-16 23:26:00,51.1,49.2,30.24,ESE,113,2.0,5.0,93,0.00,,CLR,0.00,VWS V14.01,2013-09-17 04:26:00,
2013-09-16 23:31:00,51.3,49.3,30.24,ESE,105,6.0,6.0,93,0.00,,CLR,0.00,VWS V14.01,2013-09-17 04:31:00,
2013-09-16 23:36:00,51.4,49.2,30.24,ESE,108,4.0,6.0,92,0.00,,CLR,0.00,VWS V14.01,2013-09-17 04:36:00,
2013-09-16 23:41:00,51.3,49.1,30.24,ESE,114,4.0,6.0,92,0.00,,CLR,0.00,VWS V14.01,2013-09-17 04:41:00,
2013-09-16 23:46:00,51.3,49.3,30.24,SE,128,5.0,6.0,93,0.00,,CLR,0.00,VWS V14.01,2013-09-17 04:46:00,
2013-09-16 23:51:00,51.0,48.8,30.24,ESE,122,4.0,6.0,92,0.00,,CLR,0.00,VWS V14.01,2013-09-17 04:51:00,
2013-09-16 23:56:00,50.6,48.4,30.24,ESE,118,3.0,6.0,92,0.00,,CLR,0.00,VWS V14.01,2013-09-17 04:56:00,